This is the latest recevied weather packets stored in our database for station/object KB4MOX. If no packets are shown the sender has not sent any weather packets the latest 10 day(s).
| Time | Temp. | Humidity | Pressure | Rain* | Wind** | Luminosity | Snow |
|---|---|---|---|---|---|---|---|
| 1787443561 | 29.44° C | 65% | 1013.8 hPa | 0 mm | - | 3 W/m² | - |
| 1787443256 | 29.44° C | 63% | 1013.9 hPa | 0 mm | - | 5 W/m² | - |
| 1787442950 | 30° C | 62% | 1013.9 hPa | 0 mm | - | 8 W/m² | - |
| 1787442647 | 30.56° C | 60% | 1013.6 hPa | 0 mm | - | 12 W/m² | - |
| 1787442343 | 31.67° C | 58% | 1013.5 hPa | 0 mm | - | 15 W/m² | - |
| 1787442042 | 32.78° C | 56% | 1013.4 hPa | 0 mm | - | 19 W/m² | - |
| 1787441737 | 33.33° C | 54% | 1013.4 hPa | 0 mm | - | 23 W/m² | - |
| 1787441433 | 33.33° C | 54% | 1013.5 hPa | 0 mm | - | 33 W/m² | - |
| 1787441133 | 32.78° C | 52% | 1013.4 hPa | 0 mm | - | 40 W/m² | - |
| 1787440829 | 32.78° C | 51% | 1013.3 hPa | 0 mm | - | 49 W/m² | - |
| 1787440528 | 33.33° C | 50% | 1013.4 hPa | 0 mm | - | 58 W/m² | - |
| 1787440225 | 33.33° C | 52% | 1013.3 hPa | 0 mm | - | 68 W/m² | - |
| 1787439922 | 33.89° C | 49% | 1013.4 hPa | 0 mm | - | 78 W/m² | - |
| 1787439617 | 33.33° C | 51% | 1013.3 hPa | 0 mm | - | 89 W/m² | - |
| 1787439313 | 33.33° C | 51% | 1013.2 hPa | 0 mm | - | 100 W/m² | - |
| 1787439009 | 33.89° C | 50% | 1013.3 hPa | 0 mm | - | 112 W/m² | - |
| 1787438708 | 33.89° C | 48% | 1013.4 hPa | 0 mm | - | 123 W/m² | - |
| 1787438408 | 33.89° C | 48% | 1013.3 hPa | 0 mm | - | 140 W/m² | - |
| 1787438102 | 33.33° C | 50% | 1013.1 hPa | 0 mm | - | 155 W/m² | - |
| 1787437798 | 33.33° C | 50% | 1013.2 hPa | 0 mm | - | 168 W/m² | - |
| 1787437495 | 33.33° C | 50% | 1013.1 hPa | 0 mm | - | 185 W/m² | - |
| 1787437190 | 33.33° C | 50% | 1013.2 hPa | 0 mm | - | 197 W/m² | - |
| 1787436887 | 33.89° C | 51% | 1013.1 hPa | 0 mm | - | 211 W/m² | - |
| 1787436583 | 33.89° C | 51% | 1013.1 hPa | 0 mm | - | 226 W/m² | - |
| 1787436283 | 33.89° C | 51% | 1013.1 hPa | 0 mm | - | 244 W/m² | - |
* Rain latest hour (hover to see other rain measurements)
** Current wind speed in m/s (hover to see current wind gust speed)